メインページ
METAR-TAF:

METAR-TAF

空港 :

ヴァーツラフ・ハヴェル・プラハ国際空港

プラハ, チェコ共和国

緯度: 50-06N, 経度: 014-15E, 海抜: 365m

現時点の気象観測

当レポートは12分前の23:00(UTC)に作成
西の風 3kt
気温 17°C
湿度 68%
気圧 1013 hPa
視程10km以上
1,500メートル以下は雲なし、積乱雲なし

METAR: LKPR 172300Z 26003KT CAVOK 17/11 Q1013 NOSIG

時間: 01:12 (23:12 UTC)

予報

当レポートは6時間12分前の17:00(UTC)に作成
予報は17日の 18時(UTC)から 19日の 00時(UTC)まで有効
北/北西の風 12kt
視程10km以上
1,500メートル以下は雲なし、積乱雲なし
確率 30% :
17日の 18時(UTC)から 17日の 20時(UTC)まで一時的に
の風 12kt、最大24ktの突風を伴う
視程: 8000m
高度5000ftの雲は散在している, 塔状積雲.
にわか雨
17日の 20時(UTC)から 17日の 22時(UTC)まで徐々に
北/北西の風 6kt
18日の 06時(UTC)から 18日の 18時(UTC)まで一時的に
北西の風 16kt、最大30ktの突風を伴う
18日の 11時(UTC)から 18日の 18時(UTC)まで一時的に
視程: 8000m
高度4000ftの雲は散在している, 塔状積雲.
にわか雨

TAF: LKPR 171700Z 1718/1900 34012KT CAVOK PROB30 TEMPO 1718/1720 35012G24KT 8000 SHRA SCT050TCU BECMG 1720/1722 33006KT TEMPO 1806/1818 32016G30KT TEMPO 1811/1818 8000 SHRA SCT040TCU

4,000以上の空港の気象観測と天気予報(METAR報とTAF報)

利用可能な観測所は地図上に黄色い丸と赤い丸で示す。

丸の上にカーソルを重ねると観測所名を参照できる。

次にクリックすると気象観測と天気予報を参照できる。

マップの切り替え:黒色「×」印の緑ボタンをクリックして拡大、「-」印の緑ボタンをクリックして縮小、緑色の三角印をクリックして隣りの地図に切り替え


METAR-TAF: